Time;durP1;ratioP1;P1;durP2;ratioP2;P2;SDS_P1;SDS_P2;PMS_P1;PMS_P2;Temp;Humidity;BMP_temperature;BMP_pressure;BME280_temperature;BME280_humidity;BME280_pressure;Samples;Min_cycle;Max_cycle;Signal;HPM_P1;HPM_P2
2021/04/05 00:00:33;;;;;;;11.37;7.60;;;;;;;5.69;59.85;152822.03;5052941;28;22475;-85
2021/04/05 00:03:09;;;;;;;12.90;7.23;;;;;;;5.71;59.20;152828.47;5092691;28;20482;-85
2021/04/05 00:05:45;;;;;;;9.37;6.90;;;;;;;5.67;59.51;152818.16;5056070;28;20541;-85
2021/04/05 00:08:20;;;;;;;7.40;6.10;;;;;;;5.65;59.29;152811.69;5074196;28;20921;-85
2021/04/05 00:10:56;;;;;;;11.17;6.80;;;;;;;5.65;60.67;152813.00;5096156;28;20820;-85
2021/04/05 00:13:33;;;;;;;8.00;7.20;;;;;;;5.64;59.62;152810.41;5092614;28;20487;-85
2021/04/05 00:16:08;;;;;;;12.80;6.70;;;;;;;5.67;60.45;152818.16;5075891;28;20932;-85
2021/04/05 00:18:43;;;;;;;10.20;7.13;;;;;;;5.67;60.37;152816.84;5075564;28;21014;-85
2021/04/05 00:21:21;;;;;;;8.70;7.80;;;;;;;5.71;60.04;152828.47;5082114;28;20458;-85
2021/04/05 00:23:56;;;;;;;9.50;6.40;;;;;;;5.73;59.38;152833.63;5074272;28;20883;-85
2021/04/05 00:26:32;;;;;;;9.20;6.57;;;;;;;5.76;60.00;152841.38;5072205;28;20443;-85
2021/04/05 00:29:07;;;;;;;7.40;6.50;;;;;;;5.73;60.27;152832.34;5082597;28;20930;-85
2021/04/05 00:31:42;;;;;;;7.63;6.57;;;;;;;5.68;60.38;152820.75;5094065;28;20489;-85
2021/04/05 00:34:17;;;;;;;9.47;6.63;;;;;;;5.63;60.51;152806.56;5060300;28;20437;-85
2021/04/05 00:36:53;;;;;;;6.83;6.13;;;;;;;5.64;60.25;152810.41;5075732;28;20453;-85
2021/04/05 00:39:28;;;;;;;8.97;6.83;;;;;;;5.62;61.00;152805.25;5093500;28;20437;-84
2021/04/05 00:42:04;;;;;;;6.40;5.77;;;;;;;5.69;60.38;152823.34;5075592;28;20823;-85
2021/04/05 00:44:39;;;;;;;6.77;5.97;;;;;;;5.69;60.38;152823.34;5093337;28;20449;-85
2021/04/05 00:47:15;;;;;;;9.17;6.07;;;;;;;5.64;61.20;152810.41;5093539;28;20429;-85
2021/04/05 00:49:50;;;;;;;7.50;6.53;;;;;;;5.64;60.78;152810.41;5055416;28;20457;-85
2021/04/05 00:52:27;;;;;;;7.20;5.37;;;;;;;5.67;60.61;152818.16;5072289;28;20443;-84
2021/04/05 00:55:02;;;;;;;11.20;6.27;;;;;;;5.73;60.90;152832.34;5055585;28;20430;-85
2021/04/05 00:57:37;;;;;;;7.57;6.03;;;;;;;5.69;60.94;152822.03;5072394;28;20450;-85
2021/04/05 01:00:15;;;;;;;6.87;5.10;;;;;;;5.69;60.76;152822.03;5075565;28;20476;-85
2021/04/05 01:02:50;;;;;;;6.80;5.40;;;;;;;5.64;61.38;152810.41;5057409;28;20832;-84
2021/04/05 01:05:25;;;;;;;7.83;5.63;;;;;;;5.61;61.07;152802.72;5062335;28;20839;-84
2021/04/05 01:08:03;;;;;;;5.87;5.37;;;;;;;5.61;61.28;152802.72;5075182;28;20798;-84
2021/04/05 01:10:38;;;;;;;8.27;5.60;;;;;;;5.60;61.10;152798.81;5110517;28;20444;-85
2021/04/05 01:13:13;;;;;;;6.63;5.30;;;;;;;5.61;60.96;152802.72;5095559;28;20814;-84
2021/04/05 01:15:48;;;;;;;6.90;6.10;;;;;;;5.56;61.06;152789.75;5085334;28;20800;-84
2021/04/05 01:18:23;;;;;;;6.57;5.60;;;;;;;5.56;61.04;152789.75;5092916;28;20457;-84
2021/04/05 01:20:59;;;;;;;7.47;5.13;;;;;;;5.58;61.28;152794.97;5081734;28;20461;-85
2021/04/05 01:23:35;;;;;;;6.50;5.57;;;;;;;5.56;60.94;152789.75;5098448;28;20437;-85
2021/04/05 01:26:10;;;;;;;7.10;5.67;;;;;;;5.53;61.22;152782.06;5078000;28;20822;-85
2021/04/05 01:28:46;;;;;;;7.17;4.93;;;;;;;5.47;61.70;152767.88;5081734;28;20438;-84
2021/04/05 01:31:21;;;;;;;7.10;6.20;;;;;;;5.48;60.75;152769.19;5061488;28;20979;-84
2021/04/05 01:33:56;;;;;;;9.40;5.33;;;;;;;5.45;61.37;152761.44;5062283;28;20433;-85
2021/04/05 01:36:31;;;;;;;7.07;6.33;;;;;;;5.43;61.77;152756.25;5083661;28;20444;-85
2021/04/05 01:39:07;;;;;;;8.23;5.60;;;;;;;5.38;62.13;152744.66;5078894;28;20502;-84
2021/04/05 01:41:42;;;;;;;7.40;5.50;;;;;;;5.36;62.06;152738.22;5078754;28;21074;-85
2021/04/05 01:44:17;;;;;;;5.80;5.20;;;;;;;5.29;62.42;152720.19;5078559;28;20432;-85
2021/04/05 01:46:53;;;;;;;7.60;5.47;;;;;;;5.23;62.79;152706.00;5095322;28;20441;-85
2021/04/05 01:49:28;;;;;;;5.70;4.90;;;;;;;5.18;62.52;152691.81;5078671;28;20438;-85
2021/04/05 01:52:04;;;;;;;5.50;5.00;;;;;;;5.12;62.30;152676.31;5096770;28;20826;-85
2021/04/05 01:54:40;;;;;;;7.13;5.60;;;;;;;5.11;62.76;152673.78;5096584;28;20429;-85
2021/04/05 01:57:15;;;;;;;7.20;5.93;;;;;;;5.12;62.66;152676.31;5078541;28;20506;-85
2021/04/05 01:59:51;;;;;;;7.67;5.43;;;;;;;5.09;63.27;152669.88;5077915;28;20975;-85
2021/04/05 02:02:27;;;;;;;9.60;5.53;;;;;;;5.06;63.16;152660.84;5081304;28;20829;-85
2021/04/05 02:05:06;;;;;;;8.03;5.43;;;;;;;5.04;63.28;152657.00;5094780;28;20417;-85
2021/04/05 02:07:41;;;;;;;7.63;5.87;;;;;;;4.99;63.21;152644.13;5083278;28;20443;-85
2021/04/05 02:10:23;;;;;;;6.93;5.80;;;;;;;4.95;63.92;152632.53;5095294;28;20437;-85
2021/04/05 02:12:58;;;;;;;8.13;5.70;;;;;;;4.95;63.74;152633.78;5083095;28;20445;-85
2021/04/05 02:15:34;;;;;;;7.60;6.80;;;;;;;4.90;64.63;152622.19;5095266;28;20437;-85
2021/04/05 02:18:12;;;;;;;8.17;5.60;;;;;;;4.85;64.72;152609.31;5071294;28;21072;-85
2021/04/05 02:20:46;;;;;;;6.23;5.60;;;;;;;4.82;64.46;152600.28;5088043;28;20454;-85
2021/04/05 02:23:25;;;;;;;9.63;5.83;;;;;;;4.75;64.71;152583.56;5075802;28;20434;-85
2021/04/05 02:26:10;;;;;;;8.53;5.70;;;;;;;4.71;64.69;152573.22;5070688;28;20442;-85
2021/04/05 02:28:47;;;;;;;9.70;5.97;;;;;;;4.70;65.31;152570.66;5078307;28;20544;-85
2021/04/05 02:31:24;;;;;;;7.00;5.83;;;;;;;4.70;65.63;152569.38;5062418;28;20429;-85
2021/04/05 02:33:59;;;;;;;7.87;4.93;;;;;;;4.66;65.68;152560.34;5094413;28;20437;-85
2021/04/05 02:36:34;;;;;;;7.37;5.23;;;;;;;4.68;65.52;152565.53;5067989;28;20473;-85
2021/04/05 02:39:11;;;;;;;7.27;5.50;;;;;;;4.66;65.50;152559.09;5094870;28;20930;-85
2021/04/05 02:41:49;;;;;;;8.47;5.37;;;;;;;4.59;65.23;152541.03;5077669;28;20906;-85
2021/04/05 02:44:25;;;;;;;9.10;5.90;;;;;;;4.62;65.77;152548.75;5095874;28;20413;-84
2021/04/05 02:47:00;;;;;;;6.77;5.73;;;;;;;4.62;66.21;152550.06;5077229;28;21069;-85
2021/04/05 02:49:36;;;;;;;6.60;5.90;;;;;;;4.56;65.77;152534.59;5077624;28;20433;-85
2021/04/05 02:52:11;;;;;;;6.97;5.50;;;;;;;4.61;65.88;152547.47;5073735;28;21008;-85
2021/04/05 02:54:46;;;;;;;5.93;5.43;;;;;;;4.63;66.05;152552.59;5074947;28;20831;-85
2021/04/05 02:57:22;;;;;;;6.53;5.43;;;;;;;4.64;66.50;152553.91;5075359;28;20430;-85
2021/04/05 02:59:58;;;;;;;6.67;5.37;;;;;;;4.57;66.15;152537.19;5064714;28;20469;-84
2021/04/05 03:02:33;;;;;;;6.30;5.55;;;;;;;4.53;66.76;152525.53;5078754;28;21007;-85
2021/04/05 03:05:10;;;;;;;6.63;5.73;;;;;;;4.50;66.68;152519.09;5095315;28;20602;-85
2021/04/05 03:07:45;;;;;;;5.93;5.23;;;;;;;4.45;67.30;152506.22;5097427;28;20456;-84
2021/04/05 03:10:23;;;;;;;8.07;6.20;;;;;;;4.41;66.78;152494.66;5097144;28;20436;-85
2021/04/05 03:12:59;;;;;;;8.50;5.30;;;;;;;4.36;67.18;152483.06;5115709;28;20433;-85
2021/04/05 03:15:35;;;;;;;6.13;5.30;;;;;;;4.35;67.16;152480.47;5099884;28;20827;-85
2021/04/05 03:18:11;;;;;;;6.93;5.47;;;;;;;4.34;67.39;152477.94;5085845;28;20216;-84
2021/04/05 03:20:47;;;;;;;7.73;5.60;;;;;;;4.28;67.50;152463.75;5100647;28;20605;-85
2021/04/05 03:23:23;;;;;;;8.07;6.20;;;;;;;4.26;68.62;152457.31;5058608;28;20430;-86
2021/04/05 03:25:58;;;;;;;8.87;6.00;;;;;;;4.21;68.02;152444.41;5081964;28;20944;-84
2021/04/05 03:28:34;;;;;;;7.20;5.00;;;;;;;4.22;68.23;152447.00;5077299;28;20441;-84
2021/04/05 03:31:12;;;;;;;7.97;5.83;;;;;;;4.20;68.16;152443.16;5093719;28;20784;-85
2021/04/05 03:33:52;;;;;;;8.87;5.43;;;;;;;4.17;68.00;152434.13;5077040;28;20469;-85
2021/04/05 03:36:29;;;;;;;8.00;5.33;;;;;;;4.19;68.11;152439.25;5093497;28;20495;-85
2021/04/05 03:39:05;;;;;;;8.33;5.30;;;;;;;4.20;67.92;152441.84;5073381;28;20466;-85
2021/04/05 03:41:47;;;;;;;8.43;5.60;;;;;;;4.19;68.69;152440.56;5073443;28;20446;-85
2021/04/05 03:44:28;;;;;;;9.30;6.17;;;;;;;4.15;68.99;152428.97;5056445;28;20470;-85
2021/04/05 03:47:08;;;;;;;12.47;5.80;;;;;;;4.13;68.38;152423.84;5073251;28;20450;-85
2021/04/05 03:49:47;;;;;;;6.10;5.47;;;;;;;4.12;68.52;152421.25;5056336;28;20434;-85
2021/04/05 03:52:26;;;;;;;9.03;6.47;;;;;;;4.14;69.02;152426.38;5073247;28;20434;-85
2021/04/05 03:55:04;;;;;;;6.57;5.40;;;;;;;4.06;69.61;152407.06;5077257;28;20824;-85
2021/04/05 03:57:45;;;;;;;9.10;6.27;;;;;;;4.04;69.61;152400.63;5076336;28;20924;-84
2021/04/05 04:00:22;;;;;;;8.77;6.37;;;;;;;3.98;69.91;152386.47;5076054;28;20804;-84
2021/04/05 04:03:00;;;;;;;9.40;6.50;;;;;;;3.90;69.44;152364.56;5076261;28;20886;-84
2021/04/05 04:05:42;;;;;;;7.27;5.30;;;;;;;3.89;70.10;152363.25;5060106;28;20811;-85
2021/04/05 04:08:24;;;;;;;9.27;5.93;;;;;;;3.90;70.36;152364.56;5101490;28;20432;-85
2021/04/05 04:11:04;;;;;;;6.60;5.90;;;;;;;3.84;70.46;152350.41;5102326;28;20433;-85
2021/04/05 04:13:42;;;;;;;6.00;5.17;;;;;;;3.82;70.25;152343.97;5087562;28;20450;-85
2021/04/05 04:16:19;;;;;;;7.30;5.60;;;;;;;3.83;70.20;152346.56;5056382;28;20438;-85
2021/04/05 04:18:56;;;;;;;6.50;5.40;;;;;;;3.83;70.22;152346.56;5074487;28;20893;-85
2021/04/05 04:21:31;;;;;;;10.90;5.87;;;;;;;3.82;70.45;152343.97;5060384;28;21005;-85
2021/04/05 04:24:08;;;;;;;7.43;5.60;;;;;;;3.80;70.66;152338.81;5075900;28;20449;-85
2021/04/05 04:26:43;;;;;;;7.80;5.77;;;;;;;3.79;71.03;152336.22;5060683;28;20465;-85
2021/04/05 04:29:20;;;;;;;9.80;5.70;;;;;;;3.86;70.78;152354.28;5075853;28;20437;-85
2021/04/05 04:31:56;;;;;;;7.87;5.90;;;;;;;3.80;70.48;152340.13;5076752;28;20774;-85
2021/04/05 04:34:31;;;;;;;10.20;6.97;;;;;;;3.79;70.58;152336.22;5075506;28;20442;-85
2021/04/05 04:37:06;;;;;;;8.43;6.70;;;;;;;3.83;70.65;152346.56;5075768;28;20449;-85
2021/04/05 04:39:42;;;;;;;6.23;5.63;;;;;;;3.83;70.10;152346.56;5094341;28;20417;-85
2021/04/05 04:42:17;;;;;;;8.30;5.87;;;;;;;3.79;70.45;152336.22;5072231;28;20469;-85
2021/04/05 04:44:52;;;;;;;7.10;5.90;;;;;;;3.84;70.76;152349.16;5057295;28;20422;-85
2021/04/05 04:47:28;;;;;;;8.80;6.17;;;;;;;3.83;70.95;152346.56;5055595;28;20437;-85
2021/04/05 04:50:04;;;;;;;5.90;4.93;;;;;;;3.80;71.02;152340.13;5061600;28;20445;-85
2021/04/05 04:52:40;;;;;;;8.80;6.50;;;;;;;3.85;70.65;152351.69;5066804;28;20453;-85
2021/04/05 04:55:16;;;;;;;5.90;5.30;;;;;;;3.83;71.40;152347.84;5049176;28;20446;-85
2021/04/05 04:57:55;;;;;;;8.07;6.27;;;;;;;3.88;70.51;152360.72;5097394;28;20437;-85
2021/04/05 05:00:31;;;;;;;6.27;5.20;;;;;;;3.88;70.34;152359.44;5090757;28;20461;-85
2021/04/05 05:03:07;;;;;;;7.87;5.43;;;;;;;3.84;71.26;152350.41;5080830;28;20441;-85
2021/04/05 05:05:43;;;;;;;6.50;5.70;;;;;;;3.80;71.54;152338.81;5078598;28;20426;-85
2021/04/05 05:08:18;;;;;;;6.13;5.53;;;;;;;3.84;71.17;152350.41;5077593;28;20856;-85
2021/04/05 05:10:54;;;;;;;6.40;5.47;;;;;;;3.88;70.79;152359.44;5084425;28;20437;-85
2021/04/05 05:13:29;;;;;;;7.00;5.47;;;;;;;3.94;71.08;152376.19;5100327;28;20470;-85
2021/04/05 05:16:05;;;;;;;7.40;6.00;;;;;;;3.98;70.27;152385.16;5081875;28;20769;-85
2021/04/05 05:18:41;;;;;;;6.40;5.30;;;;;;;4.01;71.11;152392.91;5083432;28;20449;-84
2021/04/05 05:21:22;;;;;;;8.77;5.87;;;;;;;4.02;70.78;152396.78;5077455;28;20956;-85
2021/04/05 05:24:01;;;;;;;7.07;5.60;;;;;;;4.06;70.57;152405.78;5066014;28;20438;-84
2021/04/05 05:26:37;;;;;;;7.83;7.03;;;;;;;4.07;70.49;152409.66;5067012;28;20512;-85
2021/04/05 05:29:13;;;;;;;8.67;6.23;;;;;;;4.08;70.72;152412.22;5081638;28;20853;-85
2021/04/05 05:31:49;;;;;;;7.77;6.20;;;;;;;4.11;70.28;152418.66;5064189;28;20475;-84
2021/04/05 05:34:25;;;;;;;7.10;5.57;;;;;;;4.22;69.95;152447.00;5101544;28;20444;-84
2021/04/05 05:37:01;;;;;;;7.20;5.97;;;;;;;4.23;69.88;152449.59;5082414;28;20445;-85
2021/04/05 05:39:36;;;;;;;7.60;6.60;;;;;;;4.25;69.54;152454.72;5081592;28;20564;-85
2021/04/05 05:42:14;;;;;;;7.07;6.37;;;;;;;4.31;69.83;152471.44;5065116;28;20468;-84
2021/04/05 05:45:02;;;;;;;9.50;5.23;;;;;;;4.32;69.98;152472.75;5088124;28;20445;-85
2021/04/05 05:47:50;;;;;;;7.50;5.23;;;;;;;4.44;69.44;152502.38;5114999;28;20480;-84
2021/04/05 05:50:34;;;;;;;6.63;5.20;;;;;;;4.49;69.48;152515.25;5088044;28;20446;-84
2021/04/05 05:53:19;;;;;;;5.80;5.20;;;;;;;4.56;68.77;152534.59;5076876;28;20457;-85
2021/04/05 05:56:05;;;;;;;7.13;5.60;;;;;;;4.63;68.84;152551.34;5095709;28;20520;-85
2021/04/05 05:58:46;;;;;;;5.33;4.63;;;;;;;4.72;68.25;152575.81;5065384;28;20452;-85
2021/04/05 06:01:26;;;;;;;6.30;4.43;;;;;;;4.77;68.69;152588.69;5094943;28;20552;-85
2021/04/05 06:04:10;;;;;;;6.83;5.03;;;;;;;4.83;68.07;152604.16;5059312;28;20931;-85
2021/04/05 06:06:53;;;;;;;5.00;4.47;;;;;;;4.97;68.02;152638.97;5098475;28;20912;-85
2021/04/05 06:09:37;;;;;;;9.87;5.30;;;;;;;5.06;67.12;152662.16;5076374;28;20489;-85
2021/04/05 06:12:15;;;;;;;7.10;4.90;;;;;;;5.17;67.17;152689.22;5059375;28;20442;-85
2021/04/05 06:14:57;;;;;;;8.30;5.87;;;;;;;5.21;66.38;152700.84;5073963;28;20442;-85
2021/04/05 06:17:44;;;;;;;6.63;5.30;;;;;;;5.25;66.57;152711.13;5048930;28;20429;-85
2021/04/05 06:20:24;;;;;;;6.95;5.47;;;;;;;5.29;65.76;152721.47;5062180;28;20473;-85
2021/04/05 06:23:11;;;;;;;6.60;5.10;;;;;;;5.35;66.44;152735.63;5077799;28;20229;-85
2021/04/05 06:25:51;;;;;;;8.33;5.20;;;;;;;5.43;66.00;152757.53;5095202;28;20449;-85
2021/04/05 06:28:34;;;;;;;7.43;4.97;;;;;;;5.52;65.73;152780.78;5077641;28;20905;-84
2021/04/05 06:31:18;;;;;;;6.47;5.70;;;;;;;5.63;64.96;152807.84;5096076;28;20410;-85
2021/04/05 06:33:54;;;;;;;6.70;4.70;;;;;;;5.71;64.41;152827.19;5061078;28;20489;-85
2021/04/05 06:36:34;;;;;;;5.90;5.30;;;;;;;5.74;64.57;152836.22;5075260;28;20418;-85
2021/04/05 06:39:18;;;;;;;7.13;5.00;;;;;;;5.83;63.84;152859.41;5093629;28;20551;-85
2021/04/05 06:42:16;;;;;;;7.10;5.50;;;;;;;5.88;63.69;152872.34;5062002;28;20469;-85
2021/04/05 06:45:17;;;;;;;7.60;6.10;;;;;;;5.98;63.68;152896.91;5094350;28;20441;-85
2021/04/05 06:48:02;;;;;;;5.70;5.17;;;;;;;6.03;63.40;152911.09;5056501;28;20556;-85
2021/04/05 06:50:46;;;;;;;6.17;5.00;;;;;;;6.10;63.18;152927.84;5070854;28;20450;-85
2021/04/05 06:53:39;;;;;;;5.90;4.30;;;;;;;6.13;62.56;152936.88;5071473;28;20468;-86
2021/04/05 06:56:24;;;;;;;8.33;5.40;;;;;;;6.19;62.62;152949.78;5081918;28;20437;-86
2021/04/05 06:59:11;;;;;;;5.23;4.27;;;;;;;6.21;62.85;152954.94;5059075;28;20828;-87
2021/04/05 07:01:57;;;;;;;6.43;4.80;;;;;;;6.27;62.21;152971.72;5070039;28;20455;-85
2021/04/05 07:04:56;;;;;;;7.85;4.68;;;;;;;6.39;63.00;153001.38;5066608;28;20536;-85
2021/04/05 07:07:43;;;;;;;7.20;4.53;;;;;;;6.48;62.55;153025.91;5054871;28;20195;-85
2021/04/05 07:10:25;;;;;;;6.20;4.93;;;;;;;6.60;61.64;153055.56;5069233;28;20463;-85
2021/04/05 07:13:05;;;;;;;5.90;5.00;;;;;;;6.70;61.79;153082.66;5062474;28;20452;-85
2021/04/05 07:15:47;;;;;;;6.20;5.20;;;;;;;6.82;61.04;153112.38;5062349;28;20447;-85
2021/04/05 07:18:35;;;;;;;7.53;5.27;;;;;;;6.92;61.41;153136.88;5058247;28;20443;-85
2021/04/05 07:21:19;;;;;;;6.67;4.57;;;;;;;7.01;61.05;153161.44;5085493;28;20474;-85
2021/04/05 07:24:07;;;;;;;10.77;5.30;;;;;;;7.08;60.61;153178.19;5067220;28;20440;-84
2021/04/05 07:26:49;;;;;;;7.10;5.00;;;;;;;7.13;60.26;153192.41;5055712;28;20448;-85
2021/04/05 07:29:33;;;;;;;7.10;4.67;;;;;;;7.32;59.62;153241.47;5073803;28;20452;-84
2021/04/05 07:32:15;;;;;;;9.30;5.27;;;;;;;7.53;59.72;153293.13;5073591;28;20950;-85
2021/04/05 07:35:02;;;;;;;6.67;5.13;;;;;;;7.80;59.57;153362.88;5058470;28;20484;-85
2021/04/05 07:37:46;;;;;;;7.37;4.73;;;;;;;8.03;58.01;153422.31;5053641;28;20440;-85
2021/04/05 07:40:39;;;;;;;6.27;4.60;;;;;;;8.27;57.78;153484.41;5077949;28;20794;-85
2021/04/05 07:43:21;;;;;;;8.30;4.37;;;;;;;8.52;56.70;153549.00;5045547;28;20429;-85
2021/04/05 07:46:13;;;;;;;5.43;4.80;;;;;;;8.78;56.35;153614.97;5069923;28;20541;-85
2021/04/05 07:48:57;;;;;;;8.27;5.90;;;;;;;9.17;56.13;153714.50;5054001;28;20443;-85
2021/04/05 07:51:43;;;;;;;5.23;4.00;;;;;;;9.60;54.59;153825.78;5069340;28;20439;-85
2021/04/05 07:54:20;;;;;;;5.40;4.60;;;;;;;10.05;53.58;153939.63;5068201;28;20461;-85
2021/04/05 07:57:06;;;;;;;5.60;4.60;;;;;;;10.39;52.34;154029.00;5076768;28;20201;-84
2021/04/05 07:59:50;;;;;;;7.17;5.00;;;;;;;10.54;51.81;154065.28;5053068;28;20869;-84
2021/04/05 08:02:47;;;;;;;6.63;4.80;;;;;;;10.82;51.34;154139.06;5056077;28;20470;-86
2021/04/05 08:05:37;;;;;;;6.77;4.77;;;;;;;11.01;50.69;154188.25;5062762;28;20473;-84
2021/04/05 08:08:28;;;;;;;5.10;4.30;;;;;;;11.31;50.25;154263.38;5078104;28;20973;-85
2021/04/05 08:11:10;;;;;;;7.37;6.10;;;;;;;11.63;50.08;154346.31;5073439;28;20453;-85
2021/04/05 08:13:51;;;;;;;6.07;4.60;;;;;;;11.94;49.03;154425.47;5067323;28;20957;-85
2021/04/05 08:16:30;;;;;;;6.10;4.33;;;;;;;12.23;48.07;154499.34;5073546;28;20471;-85
2021/04/05 08:19:12;;;;;;;5.40;4.40;;;;;;;12.26;48.44;154507.13;5059891;28;20483;-85
2021/04/05 08:21:53;;;;;;;6.47;4.73;;;;;;;12.49;48.11;154568.06;5059329;28;20555;-85
2021/04/05 08:24:34;;;;;;;6.10;4.03;;;;;;;12.74;47.88;154632.88;5063686;28;20458;-84
2021/04/05 08:27:16;;;;;;;6.80;4.30;;;;;;;12.77;47.51;154640.66;5088885;28;20442;-84
2021/04/05 08:29:56;;;;;;;6.40;4.60;;;;;;;13.05;46.95;154710.72;5072569;28;20621;-85
2021/04/05 08:32:38;;;;;;;12.83;4.27;;;;;;;13.12;46.66;154730.22;5067192;28;21124;-85
2021/04/05 08:35:21;;;;;;;5.37;4.30;;;;;;;13.10;46.45;154725.06;5039992;28;20462;-85
2021/04/05 08:38:03;;;;;;;5.10;4.10;;;;;;;13.00;45.09;154697.75;5063898;28;20511;-85
2021/04/05 08:40:45;;;;;;;5.73;4.30;;;;;;;12.98;45.50;154693.84;5046399;28;20453;-85
2021/04/05 08:43:25;;;;;;;5.53;4.43;;;;;;;13.12;43.59;154730.22;5069427;28;20470;-84
2021/04/05 08:46:11;;;;;;;5.10;3.43;;;;;;;13.02;43.95;154704.25;5082714;28;20453;-84
2021/04/05 08:48:49;;;;;;;4.93;2.90;;;;;;;13.21;43.28;154753.56;5059117;28;20472;-84
2021/04/05 08:51:26;;;;;;;4.90;3.33;;;;;;;13.07;43.99;154715.97;5065800;28;20429;-84
2021/04/05 08:54:03;;;;;;;4.43;3.43;;;;;;;12.96;43.23;154688.66;5060040;28;20481;-84
2021/04/05 08:56:42;;;;;;;5.10;3.43;;;;;;;13.03;44.37;154705.50;5072287;28;20441;-84
2021/04/05 08:59:23;;;;;;;8.37;4.00;;;;;;;13.08;44.33;154719.81;5075364;28;21133;-84
2021/04/05 09:02:00;;;;;;;6.43;3.50;;;;;;;12.92;43.95;154678.25;5056226;28;20476;-84
2021/04/05 09:04:35;;;;;;;4.30;3.60;;;;;;;12.91;43.40;154675.69;5089327;28;20471;-84
2021/04/05 09:07:18;;;;;;;5.77;4.17;;;;;;;12.87;44.06;154664.03;5090268;28;20443;-83
2021/04/05 09:09:57;;;;;;;6.50;3.03;;;;;;;12.51;42.67;154571.94;5075663;28;20476;-83
2021/04/05 09:12:34;;;;;;;5.83;3.20;;;;;;;12.61;42.60;154597.84;5055882;28;20889;-84
2021/04/05 09:15:41;;;;;;;3.75;3.38;;;;;;;12.49;41.85;154566.75;5082520;28;20443;-87
2021/04/05 09:18:35;;;;;;;6.33;4.07;;;;;;;12.43;42.59;154551.19;5079252;28;20203;-87
2021/04/05 09:21:18;;;;;;;6.80;3.17;;;;;;;12.36;42.34;154533.03;5070149;28;20443;-86
2021/04/05 09:24:31;;;;;;;4.60;3.00;;;;;;;12.28;42.12;154512.31;5076695;28;20447;-87
2021/04/05 09:27:30;;;;;;;4.83;2.93;;;;;;;12.12;43.48;154473.41;5034651;28;20443;-87
2021/04/05 09:30:28;;;;;;;3.67;2.90;;;;;;;11.98;43.08;154437.09;5091342;28;20549;-87
2021/04/05 09:33:21;;;;;;;6.70;3.77;;;;;;;12.05;43.95;154455.25;5087850;28;21001;-87
2021/04/05 09:36:05;;;;;;;5.17;3.23;;;;;;;12.01;43.18;154444.91;5076184;28;20437;-87
2021/04/05 09:39:18;;;;;;;4.40;3.27;;;;;;;12.04;43.68;154451.38;5063867;28;20982;-87
2021/04/05 09:42:03;;;;;;;6.40;3.50;;;;;;;12.09;43.32;154465.63;5074047;28;20469;-87
2021/04/05 09:45:14;;;;;;;7.43;3.37;;;;;;;11.97;42.77;154434.50;5078235;28;20439;-87
2021/04/05 09:48:26;;;;;;;5.67;3.30;;;;;;;12.01;42.79;154444.91;5097151;28;20417;-87
2021/04/05 09:51:11;;;;;;;7.23;3.20;;;;;;;11.98;43.32;154437.09;5056323;28;20445;-86
2021/04/05 09:53:57;;;;;;;5.53;3.47;;;;;;;12.08;42.97;154463.03;5095533;28;20442;-87
2021/04/05 09:56:35;;;;;;;4.20;3.27;;;;;;;12.04;42.99;154452.69;5096429;28;20422;-87
2021/04/05 09:59:11;;;;;;;4.10;2.90;;;;;;;12.02;42.93;154447.44;5096913;28;20461;-87
2021/04/05 10:01:50;;;;;;;3.57;3.10;;;;;;;12.03;42.60;154450.06;5078977;28;20463;-86
2021/04/05 10:04:25;;;;;;;4.37;2.90;;;;;;;12.11;42.17;154469.50;5078591;28;20441;-87
2021/04/05 10:07:01;;;;;;;7.13;3.33;;;;;;;12.05;42.53;154455.25;5090015;28;20450;-87
2021/04/05 10:09:36;;;;;;;5.37;2.83;;;;;;;12.08;42.94;154463.03;5083560;28;20444;-87
2021/04/05 10:12:12;;;;;;;4.43;2.93;;;;;;;12.01;42.39;154444.91;5087194;28;20845;-87
2021/04/05 10:14:48;;;;;;;4.97;3.47;;;;;;;12.00;43.42;154442.28;5080350;28;20433;-87
2021/04/05 10:17:25;;;;;;;3.27;2.73;;;;;;;11.98;44.30;154435.81;5095513;28;20437;-87
2021/04/05 10:20:06;;;;;;;3.73;3.33;;;;;;;11.95;42.93;154428.00;5091863;28;20449;-86
2021/04/05 10:22:44;;;;;;;3.10;2.60;;;;;;;11.94;43.44;154425.47;5076969;28;20820;-85
2021/04/05 10:25:20;;;;;;;3.57;2.60;;;;;;;12.01;43.44;154444.91;5094482;28;20553;-85
2021/04/05 10:27:57;;;;;;;4.17;2.90;;;;;;;12.07;43.73;154459.16;5081340;28;20452;-85
2021/04/05 10:30:34;;;;;;;4.50;3.13;;;;;;;12.09;43.24;154464.31;5095005;28;20484;-85
2021/04/05 10:33:15;;;;;;;9.47;3.87;;;;;;;12.09;42.76;154465.63;5093753;28;20472;-85
2021/04/05 10:35:55;;;;;;;7.27;2.93;;;;;;;12.08;42.37;154463.03;5074882;28;20445;-84
2021/04/05 10:38:30;;;;;;;3.27;2.60;;;;;;;12.17;42.60;154486.38;5097595;28;20442;-85
2021/04/05 10:41:08;;;;;;;4.87;3.33;;;;;;;12.19;42.38;154491.56;5076765;28;20839;-85
2021/04/05 10:43:50;;;;;;;4.30;3.67;;;;;;;12.23;41.14;154500.66;5076091;28;20816;-85
2021/04/05 10:46:29;;;;;;;4.17;3.10;;;;;;;12.32;40.43;154523.94;5062071;28;20808;-84
2021/04/05 10:49:09;;;;;;;4.47;3.23;;;;;;;12.29;40.66;154516.16;5073634;28;20848;-84
2021/04/05 10:51:50;;;;;;;5.10;3.57;;;;;;;12.36;40.78;154533.03;5095913;28;20800;-84
2021/04/05 10:54:29;;;;;;;4.40;3.27;;;;;;;12.38;39.42;154538.22;5090066;28;20824;-84
2021/04/05 10:57:07;;;;;;;4.93;3.67;;;;;;;12.42;39.20;154548.56;5076053;28;20553;-85
2021/04/05 10:59:46;;;;;;;5.30;3.83;;;;;;;12.51;38.18;154573.25;5066348;28;20470;-86
2021/04/05 11:02:26;;;;;;;5.70;4.53;;;;;;;12.55;38.43;154582.34;5077666;28;20473;-85
2021/04/05 11:05:06;;;;;;;6.77;3.00;;;;;;;12.54;37.63;154579.72;5094190;28;21187;-84
2021/04/05 11:07:42;;;;;;;6.33;4.20;;;;;;;12.50;37.79;154570.63;5072294;28;20447;-85
2021/04/05 11:10:19;;;;;;;4.33;2.93;;;;;;;12.51;37.78;154571.94;5063139;28;20452;-85
2021/04/05 11:12:57;;;;;;;6.23;3.83;;;;;;;12.52;36.99;154574.53;5079649;28;20470;-84
2021/04/05 11:15:36;;;;;;;4.90;3.43;;;;;;;12.49;37.46;154568.06;5089105;28;20447;-84
2021/04/05 11:18:14;;;;;;;6.60;3.40;;;;;;;12.53;36.82;154577.09;5072194;28;20444;-84
2021/04/05 11:20:51;;;;;;;4.00;2.90;;;;;;;12.60;37.66;154596.56;5084036;28;21004;-84
2021/04/05 11:23:32;;;;;;;5.67;3.13;;;;;;;12.58;36.56;154590.06;5080725;28;20870;-83
2021/04/05 11:26:23;;;;;;;4.97;2.83;;;;;;;12.56;37.00;154586.19;5088756;28;20443;-84
2021/04/05 11:28:59;;;;;;;6.00;3.53;;;;;;;12.58;37.18;154590.06;5071285;28;20453;-84
2021/04/05 11:31:35;;;;;;;3.77;3.13;;;;;;;12.58;37.56;154590.06;5076854;28;20539;-84
2021/04/05 11:34:10;;;;;;;4.23;3.27;;;;;;;12.69;37.62;154618.63;5065100;28;20856;-84
2021/04/05 11:36:48;;;;;;;5.20;3.30;;;;;;;12.71;37.93;154625.09;5076563;28;20443;-85
2021/04/05 11:39:27;;;;;;;3.57;3.00;;;;;;;12.76;38.71;154636.81;5085880;28;20919;-84
2021/04/05 11:42:05;;;;;;;3.80;2.80;;;;;;;12.80;39.04;154647.16;5067250;28;20474;-84
2021/04/05 11:44:46;;;;;;;3.17;2.87;;;;;;;12.77;39.24;154639.38;5096236;28;20454;-85
2021/04/05 11:47:22;;;;;;;3.93;3.40;;;;;;;12.77;40.15;154639.38;5093412;28;20881;-85
2021/04/05 11:49:57;;;;;;;5.70;4.10;;;;;;;12.68;40.91;154617.31;5089974;28;20443;-85
2021/04/05 11:52:40;;;;;;;8.70;4.60;;;;;;;12.67;41.04;154613.44;5071265;28;20443;-86
2021/04/05 11:55:20;;;;;;;6.27;4.37;;;;;;;12.65;41.79;154609.56;5056551;28;20466;-86
2021/04/05 11:58:02;;;;;;;5.83;5.10;;;;;;;12.69;42.09;154619.91;5075210;28;20444;-86
2021/04/05 12:00:39;;;;;;;6.60;4.80;;;;;;;12.73;41.88;154629.00;5071321;28;20470;-85
2021/04/05 12:03:20;;;;;;;5.63;4.97;;;;;;;12.66;42.29;154612.13;5087154;28;20496;-85
2021/04/05 12:05:58;;;;;;;6.53;4.83;;;;;;;12.61;42.77;154597.84;5088533;28;20446;-86
2021/04/05 12:08:40;;;;;;;7.37;5.50;;;;;;;12.61;43.09;154599.16;5068048;28;20536;-86
2021/04/05 12:11:16;;;;;;;9.00;4.67;;;;;;;12.67;42.93;154613.44;5076110;28;20450;-85
2021/04/05 12:13:54;;;;;;;7.40;4.63;;;;;;;12.73;42.71;154630.28;5056091;28;20493;-86
2021/04/05 12:16:30;;;;;;;9.57;5.77;;;;;;;12.61;42.17;154597.84;5056183;28;20436;-85
2021/04/05 12:19:05;;;;;;;10.10;5.57;;;;;;;12.58;42.98;154591.38;5060604;28;20449;-86
2021/04/05 12:21:41;;;;;;;5.87;5.27;;;;;;;12.51;41.77;154571.94;5086742;28;20501;-85
2021/04/05 12:24:24;;;;;;;6.30;5.23;;;;;;;12.45;42.37;154556.34;5074636;28;20529;-88
2021/04/05 12:27:03;;;;;;;8.77;5.77;;;;;;;12.32;43.08;154522.66;5074711;28;20461;-87